sensor_id;sensor_type;location;lat;lon;timestamp;P1;durP1;ratioP1;P2;durP2;ratioP2
28766;SDS011;15921;52.034;20.650;2023-05-18T00:01:10;12.18;;;2.65;;
28766;SDS011;15921;52.034;20.650;2023-05-18T00:03:38;15.05;;;3.00;;
28766;SDS011;15921;52.034;20.650;2023-05-18T00:06:04;14.90;;;2.85;;
28766;SDS011;15921;52.034;20.650;2023-05-18T00:08:31;12.90;;;3.20;;
28766;SDS011;15921;52.034;20.650;2023-05-18T00:11:01;18.65;;;3.28;;
28766;SDS011;15921;52.034;20.650;2023-05-18T00:13:27;10.18;;;2.65;;
28766;SDS011;15921;52.034;20.650;2023-05-18T00:15:53;19.15;;;2.90;;
28766;SDS011;15921;52.034;20.650;2023-05-18T00:18:20;13.90;;;2.72;;
28766;SDS011;15921;52.034;20.650;2023-05-18T00:20:50;15.70;;;2.65;;
28766;SDS011;15921;52.034;20.650;2023-05-18T00:23:23;12.40;;;2.80;;
28766;SDS011;15921;52.034;20.650;2023-05-18T00:25:50;12.75;;;2.83;;
28766;SDS011;15921;52.034;20.650;2023-05-18T00:28:15;13.90;;;2.72;;
28766;SDS011;15921;52.034;20.650;2023-05-18T00:30:41;17.23;;;2.80;;
28766;SDS011;15921;52.034;20.650;2023-05-18T00:33:07;11.38;;;2.80;;
28766;SDS011;15921;52.034;20.650;2023-05-18T00:35:32;9.75;;;2.20;;
28766;SDS011;15921;52.034;20.650;2023-05-18T00:37:58;17.80;;;2.45;;
28766;SDS011;15921;52.034;20.650;2023-05-18T00:40:24;16.35;;;2.70;;
28766;SDS011;15921;52.034;20.650;2023-05-18T00:42:51;14.15;;;2.53;;
28766;SDS011;15921;52.034;20.650;2023-05-18T00:45:17;11.07;;;3.35;;
28766;SDS011;15921;52.034;20.650;2023-05-18T00:47:43;12.02;;;2.60;;
28766;SDS011;15921;52.034;20.650;2023-05-18T00:50:09;10.27;;;2.25;;
28766;SDS011;15921;52.034;20.650;2023-05-18T00:52:35;10.60;;;2.63;;
28766;SDS011;15921;52.034;20.650;2023-05-18T00:55:01;13.98;;;2.35;;
28766;SDS011;15921;52.034;20.650;2023-05-18T00:57:28;16.25;;;2.95;;
28766;SDS011;15921;52.034;20.650;2023-05-18T00:59:54;14.10;;;2.65;;
28766;SDS011;15921;52.034;20.650;2023-05-18T01:02:21;9.50;;;2.63;;
28766;SDS011;15921;52.034;20.650;2023-05-18T01:04:47;13.93;;;2.47;;
28766;SDS011;15921;52.034;20.650;2023-05-18T01:07:13;11.70;;;2.25;;
28766;SDS011;15921;52.034;20.650;2023-05-18T01:09:40;13.18;;;2.55;;
28766;SDS011;15921;52.034;20.650;2023-05-18T01:12:16;10.57;;;1.98;;
28766;SDS011;15921;52.034;20.650;2023-05-18T01:14:51;12.40;;;2.40;;
28766;SDS011;15921;52.034;20.650;2023-05-18T01:17:42;15.25;;;2.40;;
28766;SDS011;15921;52.034;20.650;2023-05-18T01:20:18;8.18;;;2.08;;
28766;SDS011;15921;52.034;20.650;2023-05-18T01:26:13;10.68;;;2.03;;
28766;SDS011;15921;52.034;20.650;2023-05-18T01:29:00;15.13;;;2.67;;
28766;SDS011;15921;52.034;20.650;2023-05-18T01:31:30;15.32;;;2.20;;
28766;SDS011;15921;52.034;20.650;2023-05-18T01:33:56;8.95;;;2.28;;
28766;SDS011;15921;52.034;20.650;2023-05-18T01:36:21;13.90;;;2.15;;
28766;SDS011;15921;52.034;20.650;2023-05-18T01:38:47;8.00;;;1.95;;
28766;SDS011;15921;52.034;20.650;2023-05-18T01:43:57;10.73;;;2.30;;
28766;SDS011;15921;52.034;20.650;2023-05-18T01:46:39;10.10;;;2.28;;
28766;SDS011;15921;52.034;20.650;2023-05-18T01:49:16;9.52;;;2.40;;
28766;SDS011;15921;52.034;20.650;2023-05-18T01:51:49;16.25;;;2.58;;
28766;SDS011;15921;52.034;20.650;2023-05-18T01:54:17;6.57;;;2.08;;
28766;SDS011;15921;52.034;20.650;2023-05-18T01:56:46;12.48;;;2.35;;
28766;SDS011;15921;52.034;20.650;2023-05-18T01:59:13;11.77;;;2.78;;
28766;SDS011;15921;52.034;20.650;2023-05-18T02:01:39;8.98;;;2.03;;
28766;SDS011;15921;52.034;20.650;2023-05-18T02:04:08;12.95;;;3.25;;
28766;SDS011;15921;52.034;20.650;2023-05-18T02:06:34;6.22;;;2.17;;
28766;SDS011;15921;52.034;20.650;2023-05-18T02:09:01;11.60;;;2.65;;
28766;SDS011;15921;52.034;20.650;2023-05-18T02:11:28;13.15;;;2.83;;
28766;SDS011;15921;52.034;20.650;2023-05-18T02:13:54;13.15;;;2.53;;
28766;SDS011;15921;52.034;20.650;2023-05-18T02:16:19;10.52;;;2.53;;
28766;SDS011;15921;52.034;20.650;2023-05-18T02:18:45;16.27;;;2.70;;
28766;SDS011;15921;52.034;20.650;2023-05-18T02:21:11;6.13;;;2.20;;
28766;SDS011;15921;52.034;20.650;2023-05-18T02:23:38;13.27;;;3.22;;
28766;SDS011;15921;52.034;20.650;2023-05-18T02:26:04;9.88;;;2.40;;
28766;SDS011;15921;52.034;20.650;2023-05-18T02:28:29;10.57;;;2.40;;
28766;SDS011;15921;52.034;20.650;2023-05-18T02:31:03;13.13;;;2.90;;
28766;SDS011;15921;52.034;20.650;2023-05-18T02:33:32;11.23;;;2.30;;
28766;SDS011;15921;52.034;20.650;2023-05-18T02:36:04;9.00;;;3.17;;
28766;SDS011;15921;52.034;20.650;2023-05-18T02:38:31;11.77;;;3.08;;
28766;SDS011;15921;52.034;20.650;2023-05-18T02:40:58;11.10;;;2.92;;
28766;SDS011;15921;52.034;20.650;2023-05-18T02:43:23;9.48;;;2.72;;
28766;SDS011;15921;52.034;20.650;2023-05-18T02:45:49;15.27;;;2.95;;
28766;SDS011;15921;52.034;20.650;2023-05-18T02:48:15;11.48;;;2.92;;
28766;SDS011;15921;52.034;20.650;2023-05-18T02:50:40;10.10;;;2.85;;
28766;SDS011;15921;52.034;20.650;2023-05-18T02:53:08;7.55;;;2.33;;
28766;SDS011;15921;52.034;20.650;2023-05-18T02:55:33;11.57;;;2.60;;
28766;SDS011;15921;52.034;20.650;2023-05-18T02:57:59;10.80;;;3.08;;
28766;SDS011;15921;52.034;20.650;2023-05-18T03:00:26;6.85;;;2.10;;
28766;SDS011;15921;52.034;20.650;2023-05-18T03:02:53;9.10;;;2.33;;
28766;SDS011;15921;52.034;20.650;2023-05-18T03:05:21;10.45;;;2.40;;
28766;SDS011;15921;52.034;20.650;2023-05-18T03:07:47;14.48;;;2.47;;
28766;SDS011;15921;52.034;20.650;2023-05-18T03:10:15;11.00;;;2.60;;
28766;SDS011;15921;52.034;20.650;2023-05-18T03:12:41;16.20;;;3.13;;
28766;SDS011;15921;52.034;20.650;2023-05-18T03:15:07;11.02;;;3.00;;
28766;SDS011;15921;52.034;20.650;2023-05-18T03:17:33;18.52;;;3.40;;
28766;SDS011;15921;52.034;20.650;2023-05-18T03:19:59;8.02;;;2.50;;
28766;SDS011;15921;52.034;20.650;2023-05-18T03:22:25;15.02;;;3.13;;
28766;SDS011;15921;52.034;20.650;2023-05-18T03:24:50;12.80;;;2.95;;
28766;SDS011;15921;52.034;20.650;2023-05-18T03:27:19;12.88;;;3.25;;
28766;SDS011;15921;52.034;20.650;2023-05-18T03:29:49;17.50;;;2.75;;
28766;SDS011;15921;52.034;20.650;2023-05-18T03:32:17;18.77;;;3.00;;
28766;SDS011;15921;52.034;20.650;2023-05-18T03:34:43;16.85;;;3.85;;
28766;SDS011;15921;52.034;20.650;2023-05-18T03:37:15;15.57;;;2.97;;
28766;SDS011;15921;52.034;20.650;2023-05-18T03:39:42;11.23;;;2.67;;
28766;SDS011;15921;52.034;20.650;2023-05-18T03:42:08;10.45;;;2.90;;
28766;SDS011;15921;52.034;20.650;2023-05-18T03:44:33;15.27;;;3.42;;
28766;SDS011;15921;52.034;20.650;2023-05-18T03:46:59;11.27;;;2.65;;
28766;SDS011;15921;52.034;20.650;2023-05-18T03:49:25;16.05;;;2.97;;
28766;SDS011;15921;52.034;20.650;2023-05-18T03:51:51;12.13;;;2.63;;
28766;SDS011;15921;52.034;20.650;2023-05-18T03:54:18;18.05;;;3.33;;
28766;SDS011;15921;52.034;20.650;2023-05-18T03:56:45;14.68;;;3.45;;
28766;SDS011;15921;52.034;20.650;2023-05-18T03:59:11;22.63;;;3.28;;
28766;SDS011;15921;52.034;20.650;2023-05-18T04:01:37;14.30;;;3.05;;
28766;SDS011;15921;52.034;20.650;2023-05-18T04:04:09;16.23;;;3.58;;
28766;SDS011;15921;52.034;20.650;2023-05-18T04:06:45;9.48;;;3.50;;
28766;SDS011;15921;52.034;20.650;2023-05-18T04:09:13;17.65;;;3.65;;
28766;SDS011;15921;52.034;20.650;2023-05-18T04:11:41;15.23;;;3.20;;
28766;SDS011;15921;52.034;20.650;2023-05-18T04:14:07;16.83;;;2.83;;
28766;SDS011;15921;52.034;20.650;2023-05-18T04:16:33;13.43;;;3.33;;
28766;SDS011;15921;52.034;20.650;2023-05-18T04:18:59;11.80;;;3.15;;
28766;SDS011;15921;52.034;20.650;2023-05-18T04:21:25;17.02;;;3.47;;
28766;SDS011;15921;52.034;20.650;2023-05-18T04:23:51;15.02;;;2.65;;
28766;SDS011;15921;52.034;20.650;2023-05-18T04:26:17;15.32;;;3.40;;
28766;SDS011;15921;52.034;20.650;2023-05-18T04:28:44;19.95;;;3.67;;
28766;SDS011;15921;52.034;20.650;2023-05-18T04:31:11;17.52;;;2.78;;
28766;SDS011;15921;52.034;20.650;2023-05-18T04:33:41;11.63;;;2.90;;
28766;SDS011;15921;52.034;20.650;2023-05-18T04:36:10;14.60;;;2.72;;
28766;SDS011;15921;52.034;20.650;2023-05-18T04:38:36;9.75;;;2.85;;
28766;SDS011;15921;52.034;20.650;2023-05-18T04:41:02;10.38;;;2.90;;
28766;SDS011;15921;52.034;20.650;2023-05-18T04:43:32;10.75;;;3.13;;
28766;SDS011;15921;52.034;20.650;2023-05-18T04:45:58;18.00;;;3.40;;
28766;SDS011;15921;52.034;20.650;2023-05-18T04:48:24;12.90;;;2.97;;
28766;SDS011;15921;52.034;20.650;2023-05-18T04:50:50;18.83;;;3.22;;
28766;SDS011;15921;52.034;20.650;2023-05-18T04:53:18;11.82;;;3.05;;
28766;SDS011;15921;52.034;20.650;2023-05-18T04:55:47;17.08;;;2.72;;
28766;SDS011;15921;52.034;20.650;2023-05-18T04:58:14;10.95;;;2.70;;
28766;SDS011;15921;52.034;20.650;2023-05-18T05:00:40;13.98;;;3.28;;
28766;SDS011;15921;52.034;20.650;2023-05-18T05:03:07;17.17;;;3.00;;
28766;SDS011;15921;52.034;20.650;2023-05-18T05:05:33;10.73;;;3.50;;
28766;SDS011;15921;52.034;20.650;2023-05-18T05:07:59;8.73;;;2.50;;
28766;SDS011;15921;52.034;20.650;2023-05-18T05:10:25;8.48;;;2.53;;
28766;SDS011;15921;52.034;20.650;2023-05-18T05:12:52;14.48;;;2.78;;
28766;SDS011;15921;52.034;20.650;2023-05-18T05:15:18;10.43;;;2.90;;
28766;SDS011;15921;52.034;20.650;2023-05-18T05:17:45;11.65;;;3.42;;
28766;SDS011;15921;52.034;20.650;2023-05-18T05:20:11;7.82;;;2.40;;
28766;SDS011;15921;52.034;20.650;2023-05-18T05:22:37;12.55;;;2.53;;
28766;SDS011;15921;52.034;20.650;2023-05-18T05:25:02;13.88;;;2.80;;
28766;SDS011;15921;52.034;20.650;2023-05-18T05:27:28;11.18;;;3.20;;
28766;SDS011;15921;52.034;20.650;2023-05-18T05:29:54;10.93;;;2.83;;
28766;SDS011;15921;52.034;20.650;2023-05-18T05:32:20;13.38;;;2.42;;
28766;SDS011;15921;52.034;20.650;2023-05-18T05:34:46;10.18;;;2.13;;
28766;SDS011;15921;52.034;20.650;2023-05-18T05:37:14;7.78;;;2.10;;
28766;SDS011;15921;52.034;20.650;2023-05-18T05:39:40;16.08;;;2.60;;
28766;SDS011;15921;52.034;20.650;2023-05-18T05:42:06;10.18;;;2.47;;
28766;SDS011;15921;52.034;20.650;2023-05-18T05:44:32;8.27;;;2.60;;
28766;SDS011;15921;52.034;20.650;2023-05-18T05:46:58;10.63;;;2.60;;
28766;SDS011;15921;52.034;20.650;2023-05-18T05:49:24;14.23;;;2.58;;
28766;SDS011;15921;52.034;20.650;2023-05-18T05:51:49;7.70;;;2.08;;
28766;SDS011;15921;52.034;20.650;2023-05-18T05:54:15;14.23;;;2.53;;
28766;SDS011;15921;52.034;20.650;2023-05-18T05:56:41;11.10;;;2.30;;
28766;SDS011;15921;52.034;20.650;2023-05-18T05:59:07;8.07;;;2.03;;
28766;SDS011;15921;52.034;20.650;2023-05-18T06:01:33;12.38;;;3.33;;
28766;SDS011;15921;52.034;20.650;2023-05-18T06:04:00;16.38;;;2.35;;
28766;SDS011;15921;52.034;20.650;2023-05-18T06:06:28;6.90;;;2.40;;
28766;SDS011;15921;52.034;20.650;2023-05-18T06:08:53;10.57;;;2.05;;
28766;SDS011;15921;52.034;20.650;2023-05-18T06:11:19;14.60;;;2.53;;
28766;SDS011;15921;52.034;20.650;2023-05-18T06:13:45;4.13;;;1.58;;
28766;SDS011;15921;52.034;20.650;2023-05-18T06:16:10;7.13;;;2.25;;
28766;SDS011;15921;52.034;20.650;2023-05-18T06:18:36;13.18;;;2.33;;
28766;SDS011;15921;52.034;20.650;2023-05-18T06:21:02;6.05;;;1.70;;
28766;SDS011;15921;52.034;20.650;2023-05-18T06:23:27;10.40;;;2.97;;
28766;SDS011;15921;52.034;20.650;2023-05-18T06:25:53;11.13;;;2.03;;
28766;SDS011;15921;52.034;20.650;2023-05-18T06:28:19;9.75;;;1.63;;
28766;SDS011;15921;52.034;20.650;2023-05-18T06:30:45;8.73;;;2.30;;
28766;SDS011;15921;52.034;20.650;2023-05-18T06:33:11;11.15;;;2.22;;
28766;SDS011;15921;52.034;20.650;2023-05-18T06:35:38;7.78;;;1.63;;
28766;SDS011;15921;52.034;20.650;2023-05-18T06:38:05;11.15;;;1.52;;
28766;SDS011;15921;52.034;20.650;2023-05-18T06:40:30;7.38;;;1.77;;
28766;SDS011;15921;52.034;20.650;2023-05-18T06:42:56;10.05;;;1.58;;
28766;SDS011;15921;52.034;20.650;2023-05-18T06:45:22;11.07;;;2.50;;
28766;SDS011;15921;52.034;20.650;2023-05-18T06:47:47;8.82;;;2.00;;
28766;SDS011;15921;52.034;20.650;2023-05-18T06:50:13;6.30;;;1.48;;
28766;SDS011;15921;52.034;20.650;2023-05-18T06:52:39;4.72;;;1.40;;
28766;SDS011;15921;52.034;20.650;2023-05-18T06:55:04;11.63;;;1.52;;
28766;SDS011;15921;52.034;20.650;2023-05-18T06:57:31;5.93;;;1.20;;
28766;SDS011;15921;52.034;20.650;2023-05-18T06:59:57;8.90;;;1.67;;
28766;SDS011;15921;52.034;20.650;2023-05-18T07:02:23;6.53;;;1.70;;
28766;SDS011;15921;52.034;20.650;2023-05-18T07:04:49;4.60;;;1.27;;
28766;SDS011;15921;52.034;20.650;2023-05-18T07:07:15;2.67;;;1.20;;
28766;SDS011;15921;52.034;20.650;2023-05-18T07:09:44;10.20;;;1.20;;
28766;SDS011;15921;52.034;20.650;2023-05-18T07:12:10;5.00;;;1.00;;
28766;SDS011;15921;52.034;20.650;2023-05-18T07:14:36;3.75;;;1.30;;
28766;SDS011;15921;52.034;20.650;2023-05-18T07:17:02;4.53;;;1.27;;
28766;SDS011;15921;52.034;20.650;2023-05-18T07:19:28;3.40;;;1.08;;
28766;SDS011;15921;52.034;20.650;2023-05-18T07:21:54;14.95;;;1.48;;
28766;SDS011;15921;52.034;20.650;2023-05-18T07:24:21;9.45;;;1.10;;
28766;SDS011;15921;52.034;20.650;2023-05-18T07:26:46;9.07;;;1.30;;
28766;SDS011;15921;52.034;20.650;2023-05-18T07:29:12;7.78;;;1.40;;
28766;SDS011;15921;52.034;20.650;2023-05-18T07:31:38;6.72;;;1.10;;
28766;SDS011;15921;52.034;20.650;2023-05-18T07:34:05;4.80;;;1.75;;
28766;SDS011;15921;52.034;20.650;2023-05-18T07:36:31;4.60;;;1.30;;
28766;SDS011;15921;52.034;20.650;2023-05-18T07:38:57;5.40;;;1.17;;
28766;SDS011;15921;52.034;20.650;2023-05-18T07:41:24;7.60;;;1.25;;
28766;SDS011;15921;52.034;20.650;2023-05-18T07:43:52;6.72;;;1.45;;
28766;SDS011;15921;52.034;20.650;2023-05-18T07:46:17;21.15;;;1.58;;
28766;SDS011;15921;52.034;20.650;2023-05-18T07:48:43;5.93;;;1.02;;
28766;SDS011;15921;52.034;20.650;2023-05-18T07:51:10;3.47;;;1.20;;
28766;SDS011;15921;52.034;20.650;2023-05-18T07:53:36;6.88;;;0.88;;
28766;SDS011;15921;52.034;20.650;2023-05-18T07:56:02;2.92;;;0.80;;
28766;SDS011;15921;52.034;20.650;2023-05-18T07:58:29;2.40;;;1.08;;
28766;SDS011;15921;52.034;20.650;2023-05-18T08:00:54;4.78;;;1.23;;
28766;SDS011;15921;52.034;20.650;2023-05-18T08:03:20;5.40;;;0.90;;
28766;SDS011;15921;52.034;20.650;2023-05-18T08:05:46;4.13;;;1.13;;
28766;SDS011;15921;52.034;20.650;2023-05-18T08:08:12;5.60;;;1.10;;
28766;SDS011;15921;52.034;20.650;2023-05-18T08:10:39;4.47;;;0.95;;
28766;SDS011;15921;52.034;20.650;2023-05-18T08:13:05;3.85;;;0.98;;
28766;SDS011;15921;52.034;20.650;2023-05-18T08:15:31;2.90;;;1.00;;
28766;SDS011;15921;52.034;20.650;2023-05-18T08:17:57;3.92;;;1.10;;
28766;SDS011;15921;52.034;20.650;2023-05-18T08:20:23;6.78;;;0.82;;
28766;SDS011;15921;52.034;20.650;2023-05-18T08:22:50;2.47;;;0.80;;
28766;SDS011;15921;52.034;20.650;2023-05-18T08:25:15;3.65;;;0.85;;
28766;SDS011;15921;52.034;20.650;2023-05-18T08:27:41;5.68;;;1.27;;
28766;SDS011;15921;52.034;20.650;2023-05-18T08:30:07;7.90;;;0.80;;
28766;SDS011;15921;52.034;20.650;2023-05-18T08:32:33;5.22;;;1.40;;
28766;SDS011;15921;52.034;20.650;2023-05-18T08:35:02;5.18;;;0.85;;
28766;SDS011;15921;52.034;20.650;2023-05-18T08:37:28;3.42;;;0.90;;
28766;SDS011;15921;52.034;20.650;2023-05-18T08:39:55;7.82;;;1.15;;
28766;SDS011;15921;52.034;20.650;2023-05-18T08:42:23;2.97;;;0.90;;
28766;SDS011;15921;52.034;20.650;2023-05-18T08:47:36;2.97;;;1.00;;
28766;SDS011;15921;52.034;20.650;2023-05-18T08:50:03;4.15;;;1.00;;
28766;SDS011;15921;52.034;20.650;2023-05-18T08:52:35;2.45;;;1.10;;
28766;SDS011;15921;52.034;20.650;2023-05-18T08:55:05;4.95;;;1.10;;
28766;SDS011;15921;52.034;20.650;2023-05-18T08:57:35;6.18;;;0.82;;
28766;SDS011;15921;52.034;20.650;2023-05-18T09:00:03;2.53;;;0.70;;
28766;SDS011;15921;52.034;20.650;2023-05-18T09:02:30;1.23;;;0.68;;
28766;SDS011;15921;52.034;20.650;2023-05-18T09:04:57;3.92;;;0.85;;
28766;SDS011;15921;52.034;20.650;2023-05-18T09:07:23;7.63;;;0.70;;
28766;SDS011;15921;52.034;20.650;2023-05-18T09:09:51;3.33;;;1.00;;
28766;SDS011;15921;52.034;20.650;2023-05-18T09:12:19;6.72;;;0.70;;
28766;SDS011;15921;52.034;20.650;2023-05-18T09:14:47;2.55;;;0.82;;
28766;SDS011;15921;52.034;20.650;2023-05-18T09:17:13;1.85;;;0.80;;
28766;SDS011;15921;52.034;20.650;2023-05-18T09:19:38;4.72;;;0.90;;
28766;SDS011;15921;52.034;20.650;2023-05-18T09:22:05;2.08;;;0.77;;
28766;SDS011;15921;52.034;20.650;2023-05-18T09:24:31;5.65;;;1.10;;
28766;SDS011;15921;52.034;20.650;2023-05-18T09:26:57;2.70;;;1.02;;
28766;SDS011;15921;52.034;20.650;2023-05-18T09:29:23;3.08;;;1.17;;
28766;SDS011;15921;52.034;20.650;2023-05-18T09:31:49;2.33;;;1.00;;
28766;SDS011;15921;52.034;20.650;2023-05-18T09:34:17;3.10;;;1.02;;
28766;SDS011;15921;52.034;20.650;2023-05-18T09:36:46;4.80;;;1.38;;
28766;SDS011;15921;52.034;20.650;2023-05-18T09:39:13;4.88;;;1.00;;
28766;SDS011;15921;52.034;20.650;2023-05-18T09:41:40;2.55;;;1.00;;
28766;SDS011;15921;52.034;20.650;2023-05-18T09:44:06;2.28;;;0.70;;
28766;SDS011;15921;52.034;20.650;2023-05-18T09:46:37;0.98;;;0.68;;
28766;SDS011;15921;52.034;20.650;2023-05-18T09:49:04;4.03;;;0.98;;
28766;SDS011;15921;52.034;20.650;2023-05-18T09:51:37;2.40;;;0.90;;
28766;SDS011;15921;52.034;20.650;2023-05-18T09:54:03;4.15;;;1.10;;
28766;SDS011;15921;52.034;20.650;2023-05-18T09:56:33;6.88;;;1.30;;
28766;SDS011;15921;52.034;20.650;2023-05-18T09:59:07;1.90;;;0.95;;
28766;SDS011;15921;52.034;20.650;2023-05-18T10:01:59;2.75;;;1.00;;
28766;SDS011;15921;52.034;20.650;2023-05-18T10:04:38;4.75;;;1.10;;
28766;SDS011;15921;52.034;20.650;2023-05-18T10:07:09;4.50;;;0.90;;
28766;SDS011;15921;52.034;20.650;2023-05-18T10:09:39;2.05;;;0.95;;
28766;SDS011;15921;52.034;20.650;2023-05-18T10:12:09;2.25;;;0.90;;
28766;SDS011;15921;52.034;20.650;2023-05-18T10:14:43;3.75;;;1.27;;
28766;SDS011;15921;52.034;20.650;2023-05-18T10:17:13;3.10;;;1.10;;
28766;SDS011;15921;52.034;20.650;2023-05-18T10:19:40;3.17;;;1.15;;
28766;SDS011;15921;52.034;20.650;2023-05-18T10:22:07;3.35;;;0.93;;
28766;SDS011;15921;52.034;20.650;2023-05-18T10:24:34;5.65;;;1.13;;
28766;SDS011;15921;52.034;20.650;2023-05-18T10:27:06;4.47;;;0.90;;
28766;SDS011;15921;52.034;20.650;2023-05-18T10:29:36;4.78;;;1.13;;
28766;SDS011;15921;52.034;20.650;2023-05-18T10:32:03;8.05;;;1.20;;
28766;SDS011;15921;52.034;20.650;2023-05-18T10:34:31;3.28;;;0.90;;
28766;SDS011;15921;52.034;20.650;2023-05-18T10:36:57;4.35;;;1.17;;
28766;SDS011;15921;52.034;20.650;2023-05-18T10:39:28;4.60;;;0.88;;
28766;SDS011;15921;52.034;20.650;2023-05-18T10:41:54;4.57;;;0.90;;
28766;SDS011;15921;52.034;20.650;2023-05-18T10:44:23;2.30;;;0.90;;
28766;SDS011;15921;52.034;20.650;2023-05-18T10:46:49;2.15;;;1.05;;
28766;SDS011;15921;52.034;20.650;2023-05-18T10:49:19;3.35;;;0.88;;
28766;SDS011;15921;52.034;20.650;2023-05-18T10:51:49;3.53;;;1.02;;
28766;SDS011;15921;52.034;20.650;2023-05-18T10:54:17;3.17;;;0.90;;
28766;SDS011;15921;52.034;20.650;2023-05-18T10:56:45;2.85;;;1.30;;
28766;SDS011;15921;52.034;20.650;2023-05-18T10:59:14;2.60;;;1.00;;
28766;SDS011;15921;52.034;20.650;2023-05-18T11:01:42;3.25;;;1.15;;
28766;SDS011;15921;52.034;20.650;2023-05-18T11:04:10;5.20;;;1.10;;
28766;SDS011;15921;52.034;20.650;2023-05-18T11:06:36;5.68;;;1.10;;
28766;SDS011;15921;52.034;20.650;2023-05-18T11:09:02;6.80;;;1.83;;
28766;SDS011;15921;52.034;20.650;2023-05-18T11:11:27;5.30;;;1.42;;
28766;SDS011;15921;52.034;20.650;2023-05-18T11:13:58;6.22;;;1.50;;
28766;SDS011;15921;52.034;20.650;2023-05-18T11:16:32;6.70;;;1.35;;
28766;SDS011;15921;52.034;20.650;2023-05-18T11:19:06;2.78;;;0.90;;
28766;SDS011;15921;52.034;20.650;2023-05-18T11:27:06;5.25;;;0.90;;
28766;SDS011;15921;52.034;20.650;2023-05-18T11:34:53;6.00;;;1.75;;
28766;SDS011;15921;52.034;20.650;2023-05-18T11:40:10;3.40;;;1.08;;
28766;SDS011;15921;52.034;20.650;2023-05-18T11:42:37;2.88;;;1.20;;
28766;SDS011;15921;52.034;20.650;2023-05-18T11:45:06;2.20;;;0.90;;
28766;SDS011;15921;52.034;20.650;2023-05-18T11:47:33;4.85;;;0.98;;
28766;SDS011;15921;52.034;20.650;2023-05-18T11:50:06;2.17;;;0.80;;
28766;SDS011;15921;52.034;20.650;2023-05-18T11:52:43;1.25;;;0.80;;
28766;SDS011;15921;52.034;20.650;2023-05-18T11:55:12;3.30;;;0.90;;
28766;SDS011;15921;52.034;20.650;2023-05-18T11:57:40;2.53;;;0.95;;
28766;SDS011;15921;52.034;20.650;2023-05-18T12:00:07;5.70;;;1.08;;
28766;SDS011;15921;52.034;20.650;2023-05-18T12:02:36;5.07;;;0.88;;
28766;SDS011;15921;52.034;20.650;2023-05-18T12:05:05;5.10;;;1.08;;
28766;SDS011;15921;52.034;20.650;2023-05-18T12:07:32;6.45;;;1.02;;
28766;SDS011;15921;52.034;20.650;2023-05-18T12:10:06;4.95;;;1.15;;
28766;SDS011;15921;52.034;20.650;2023-05-18T12:12:35;2.83;;;1.00;;
28766;SDS011;15921;52.034;20.650;2023-05-18T12:15:04;6.00;;;1.27;;
28766;SDS011;15921;52.034;20.650;2023-05-18T12:17:38;5.15;;;1.25;;
28766;SDS011;15921;52.034;20.650;2023-05-18T12:20:05;4.97;;;1.10;;
28766;SDS011;15921;52.034;20.650;2023-05-18T12:22:35;1.73;;;0.90;;
28766;SDS011;15921;52.034;20.650;2023-05-18T12:25:02;1.45;;;0.88;;
28766;SDS011;15921;52.034;20.650;2023-05-18T12:27:28;4.20;;;1.20;;
28766;SDS011;15921;52.034;20.650;2023-05-18T12:29:54;2.60;;;1.02;;
28766;SDS011;15921;52.034;20.650;2023-05-18T12:32:20;2.10;;;0.80;;
28766;SDS011;15921;52.034;20.650;2023-05-18T12:34:45;3.63;;;0.70;;
28766;SDS011;15921;52.034;20.650;2023-05-18T12:37:11;3.90;;;0.90;;
28766;SDS011;15921;52.034;20.650;2023-05-18T12:39:37;2.88;;;1.30;;
28766;SDS011;15921;52.034;20.650;2023-05-18T12:42:12;4.35;;;0.85;;
28766;SDS011;15921;52.034;20.650;2023-05-18T12:44:41;6.13;;;0.90;;
28766;SDS011;15921;52.034;20.650;2023-05-18T12:47:09;2.33;;;0.93;;
28766;SDS011;15921;52.034;20.650;2023-05-18T12:49:36;2.72;;;0.93;;
28766;SDS011;15921;52.034;20.650;2023-05-18T12:52:10;5.38;;;0.70;;
28766;SDS011;15921;52.034;20.650;2023-05-18T12:54:53;1.63;;;0.75;;
28766;SDS011;15921;52.034;20.650;2023-05-18T12:57:22;1.65;;;0.68;;
28766;SDS011;15921;52.034;20.650;2023-05-18T12:59:54;8.68;;;1.08;;
28766;SDS011;15921;52.034;20.650;2023-05-18T13:02:28;2.25;;;0.80;;
28766;SDS011;15921;52.034;20.650;2023-05-18T13:05:07;3.47;;;1.05;;
28766;SDS011;15921;52.034;20.650;2023-05-18T13:07:38;3.97;;;0.90;;
28766;SDS011;15921;52.034;20.650;2023-05-18T13:10:09;4.75;;;0.70;;
28766;SDS011;15921;52.034;20.650;2023-05-18T13:12:37;3.90;;;1.15;;
28766;SDS011;15921;52.034;20.650;2023-05-18T13:15:16;3.30;;;1.05;;
28766;SDS011;15921;52.034;20.650;2023-05-18T13:17:59;3.58;;;0.80;;
28766;SDS011;15921;52.034;20.650;2023-05-18T13:22:57;2.25;;;0.80;;
28766;SDS011;15921;52.034;20.650;2023-05-18T13:25:24;2.92;;;0.95;;
28766;SDS011;15921;52.034;20.650;2023-05-18T13:27:51;7.07;;;0.90;;
28766;SDS011;15921;52.034;20.650;2023-05-18T13:30:19;3.95;;;0.63;;
28766;SDS011;15921;52.034;20.650;2023-05-18T13:32:45;4.30;;;0.75;;
28766;SDS011;15921;52.034;20.650;2023-05-18T13:35:11;2.83;;;0.80;;
28766;SDS011;15921;52.034;20.650;2023-05-18T13:37:37;1.02;;;0.60;;
28766;SDS011;15921;52.034;20.650;2023-05-18T13:40:04;4.60;;;0.95;;
28766;SDS011;15921;52.034;20.650;2023-05-18T13:42:31;2.67;;;1.08;;
28766;SDS011;15921;52.034;20.650;2023-05-18T13:44:57;1.92;;;0.80;;
28766;SDS011;15921;52.034;20.650;2023-05-18T13:47:23;2.20;;;0.77;;
28766;SDS011;15921;52.034;20.650;2023-05-18T13:49:49;5.32;;;0.93;;
28766;SDS011;15921;52.034;20.650;2023-05-18T13:52:14;5.07;;;0.85;;
28766;SDS011;15921;52.034;20.650;2023-05-18T13:54:40;2.78;;;0.77;;
28766;SDS011;15921;52.034;20.650;2023-05-18T13:57:07;2.70;;;1.00;;
28766;SDS011;15921;52.034;20.650;2023-05-18T13:59:32;3.53;;;0.90;;
28766;SDS011;15921;52.034;20.650;2023-05-18T14:02:01;5.47;;;0.80;;
28766;SDS011;15921;52.034;20.650;2023-05-18T14:04:26;8.25;;;1.23;;
28766;SDS011;15921;52.034;20.650;2023-05-18T14:06:52;5.35;;;1.02;;
28766;SDS011;15921;52.034;20.650;2023-05-18T14:09:20;4.63;;;1.20;;
28766;SDS011;15921;52.034;20.650;2023-05-18T14:11:46;3.25;;;1.20;;
28766;SDS011;15921;52.034;20.650;2023-05-18T14:14:12;1.98;;;0.90;;
28766;SDS011;15921;52.034;20.650;2023-05-18T14:16:37;1.70;;;0.95;;
28766;SDS011;15921;52.034;20.650;2023-05-18T14:19:03;2.97;;;1.00;;
28766;SDS011;15921;52.034;20.650;2023-05-18T14:21:29;2.78;;;0.80;;
28766;SDS011;15921;52.034;20.650;2023-05-18T14:23:55;4.53;;;1.27;;
28766;SDS011;15921;52.034;20.650;2023-05-18T14:26:20;3.92;;;1.20;;
28766;SDS011;15921;52.034;20.650;2023-05-18T14:28:46;9.52;;;1.80;;
28766;SDS011;15921;52.034;20.650;2023-05-18T14:31:12;3.40;;;1.38;;
28766;SDS011;15921;52.034;20.650;2023-05-18T14:33:38;4.97;;;0.98;;
28766;SDS011;15921;52.034;20.650;2023-05-18T14:36:04;2.28;;;1.00;;
28766;SDS011;15921;52.034;20.650;2023-05-18T14:38:29;8.07;;;1.30;;
28766;SDS011;15921;52.034;20.650;2023-05-18T14:40:55;2.88;;;1.10;;
28766;SDS011;15921;52.034;20.650;2023-05-18T14:43:21;4.47;;;0.85;;
28766;SDS011;15921;52.034;20.650;2023-05-18T14:45:46;4.88;;;0.90;;
28766;SDS011;15921;52.034;20.650;2023-05-18T14:48:12;3.83;;;1.17;;
28766;SDS011;15921;52.034;20.650;2023-05-18T14:50:38;1.92;;;0.75;;
28766;SDS011;15921;52.034;20.650;2023-05-18T14:53:03;6.18;;;1.23;;
28766;SDS011;15921;52.034;20.650;2023-05-18T14:55:29;3.15;;;1.17;;